Time;durP1;ratioP1;P1;durP2;ratioP2;P2;SDS_P1;SDS_P2;PMS_P1;PMS_P2;Temp;Humidity;BMP_temperature;BMP_pressure;BME280_temperature;BME280_humidity;BME280_pressure;Samples;Min_cycle;Max_cycle;Signal;HPM_P1;HPM_P2
2022/09/22 00:01:20;;;;;;;6.50;5.90;;;;;;;3.82;100.00;97801.59;5001646;28;20209;-57
2022/09/22 00:03:51;;;;;;;14.93;6.97;;;;;;;3.80;100.00;97792.16;4989213;28;20651;-59
2022/09/22 00:06:21;;;;;;;12.00;5.83;;;;;;;3.82;100.00;97803.34;5004728;28;20578;-57
2022/09/22 00:08:51;;;;;;;11.80;6.70;;;;;;;3.83;100.00;97802.41;5004888;28;20818;-52
2022/09/22 00:11:22;;;;;;;11.33;6.80;;;;;;;3.77;100.00;97798.47;4959444;28;20517;-57
2022/09/22 00:13:53;;;;;;;10.60;6.70;;;;;;;3.73;100.00;97790.06;5005109;28;20227;-50
2022/09/22 00:16:23;;;;;;;19.07;6.90;;;;;;;3.67;100.00;97801.03;5010066;28;20200;-57
2022/09/22 00:18:51;;;;;;;5.73;5.23;;;;;;;3.64;100.00;97798.69;4995362;28;20499;-58
2022/09/22 00:21:22;;;;;;;21.53;6.93;;;;;;;3.58;100.00;97804.38;5010094;28;20835;-56
2022/09/22 00:23:50;;;;;;;5.87;5.27;;;;;;;3.66;100.00;97812.50;5007274;28;20224;-58
2022/09/22 00:26:21;;;;;;;15.63;5.93;;;;;;;3.70;100.00;97807.81;4960059;28;20486;-57
2022/09/22 00:28:51;;;;;;;16.77;7.23;;;;;;;3.61;100.00;97804.16;5005718;28;20880;-53
2022/09/22 00:31:21;;;;;;;23.90;6.70;;;;;;;3.66;100.00;97812.50;5007638;28;20239;-57
2022/09/22 00:33:50;;;;;;;9.67;5.17;;;;;;;3.70;100.00;97798.16;4989241;28;20232;-56
2022/09/22 00:36:20;;;;;;;5.40;4.87;;;;;;;3.64;100.00;97797.84;5007981;28;20208;-56
2022/09/22 00:38:50;;;;;;;20.00;6.60;;;;;;;3.65;100.00;97795.09;5010251;28;20394;-54
2022/09/22 00:41:22;;;;;;;13.53;5.37;;;;;;;3.56;100.00;97801.06;4957407;28;20208;-56
2022/09/22 00:44:39;;;;;;;6.57;4.77;;;;;;;3.54;100.00;97801.22;5004294;28;20397;-55
2022/09/22 00:47:16;;;;;;;8.37;4.87;;;;;;;3.53;100.00;97799.53;4211899;28;20323;-52
2022/09/22 00:49:48;;;;;;;14.00;5.53;;;;;;;3.55;100.00;97799.41;4894810;28;21066;-58
2022/09/22 00:52:20;;;;;;;5.17;4.67;;;;;;;3.61;100.00;97805.00;4919732;28;20231;-57
2022/09/22 00:54:48;;;;;;;9.07;5.60;;;;;;;3.54;100.00;97809.06;4920366;28;20257;-55
2022/09/22 00:57:21;;;;;;;9.90;5.00;;;;;;;3.44;100.00;97808.97;4871061;28;20223;-59
2022/09/22 00:59:50;;;;;;;16.23;5.57;;;;;;;3.42;100.00;97810.06;4916993;28;20362;-54
2022/09/22 01:02:19;;;;;;;9.93;5.43;;;;;;;3.37;100.00;97813.03;4917205;28;20339;-59
2022/09/22 01:04:50;;;;;;;6.00;4.83;;;;;;;3.22;100.00;97809.00;4898444;28;20849;-61
2022/09/22 01:07:19;;;;;;;15.90;4.93;;;;;;;3.14;100.00;97802.59;4918649;28;20322;-58
2022/09/22 01:09:47;;;;;;;10.47;4.90;;;;;;;3.17;100.00;97799.72;4921762;28;20450;-60
2022/09/22 01:12:16;;;;;;;5.53;5.03;;;;;;;3.01;100.00;97786.22;4911586;28;20231;-60
2022/09/22 01:14:58;;;;;;;10.20;5.10;;;;;;;3.07;100.00;97798.00;4849837;28;20350;-59
2022/09/22 01:17:35;;;;;;;7.83;6.00;;;;;;;3.03;100.00;97790.38;4854790;28;20716;-57
2022/09/22 01:20:41;;;;;;;5.20;4.53;;;;;;;2.99;100.00;97786.31;4923886;28;20649;-54
2022/09/22 01:23:27;;;;;;;8.83;5.37;;;;;;;2.93;100.00;97772.91;4958480;28;20892;-57
2022/09/22 01:26:15;;;;;;;5.33;5.03;;;;;;;2.97;100.00;97785.59;5008827;28;20219;-56
2022/09/22 01:29:14;;;;;;;4.93;4.63;;;;;;;3.00;100.00;97785.34;5006995;28;20405;-56
2022/09/22 01:31:51;;;;;;;14.57;5.43;;;;;;;2.99;100.00;97783.69;4945346;28;20527;-56
2022/09/22 01:34:24;;;;;;;21.37;6.00;;;;;;;2.98;100.00;97792.50;5005651;28;20246;-55
2022/09/22 01:36:56;;;;;;;5.90;5.30;;;;;;;2.96;100.00;97789.16;4987144;28;20829;-58
2022/09/22 01:39:28;;;;;;;5.37;4.97;;;;;;;3.02;100.00;97788.69;4981205;28;20584;-56
2022/09/22 01:42:00;;;;;;;16.63;5.73;;;;;;;3.07;100.00;97801.44;5008655;28;20204;-55
2022/09/22 01:44:32;;;;;;;6.13;4.87;;;;;;;3.02;100.00;97790.50;5006170;28;20228;-58
2022/09/22 01:47:05;;;;;;;24.53;7.27;;;;;;;2.89;100.00;97793.22;4960316;28;20230;-60
2022/09/22 01:49:36;;;;;;;10.87;6.57;;;;;;;2.87;100.00;97790.75;4997016;28;20747;-58
2022/09/22 01:52:09;;;;;;;17.47;6.30;;;;;;;2.80;100.00;97783.50;5008901;28;20231;-57
2022/09/22 01:54:40;;;;;;;9.30;4.97;;;;;;;2.84;100.00;97782.28;4955868;28;20757;-57
2022/09/22 01:57:13;;;;;;;8.63;5.93;;;;;;;2.89;100.00;97775.75;5008421;28;20625;-56
2022/09/22 01:59:44;;;;;;;14.00;6.03;;;;;;;2.81;100.00;97777.31;5005944;28;20208;-55
2022/09/22 02:02:17;;;;;;;27.03;8.17;;;;;;;2.75;100.00;97761.13;4959989;28;20220;-58
2022/09/22 02:04:49;;;;;;;14.83;5.20;;;;;;;2.78;100.00;97770.50;5007959;28;20240;-56
2022/09/22 02:07:23;;;;;;;12.93;6.80;;;;;;;2.69;100.00;97766.84;5005234;28;20200;-59
2022/09/22 02:09:51;;;;;;;5.20;4.80;;;;;;;2.71;100.00;97767.56;4961502;28;20369;-57
2022/09/22 02:12:19;;;;;;;35.60;8.77;;;;;;;2.68;100.00;97769.56;5009958;28;20216;-58
2022/09/22 02:14:48;;;;;;;18.03;6.27;;;;;;;2.69;100.00;97766.84;5007901;28;20889;-57
2022/09/22 02:17:17;;;;;;;9.17;5.17;;;;;;;2.70;100.00;97767.66;4974391;28;20209;-58
2022/09/22 02:19:46;;;;;;;28.00;7.97;;;;;;;2.69;100.00;97766.00;4998794;28;20215;-59
2022/09/22 02:22:14;;;;;;;19.33;7.07;;;;;;;2.65;100.00;97761.97;5007891;28;20664;-57
2022/09/22 02:24:44;;;;;;;15.10;6.23;;;;;;;2.62;100.00;97764.81;4986670;28;20468;-56
2022/09/22 02:27:13;;;;;;;15.03;5.67;;;;;;;2.63;100.00;97764.69;4982672;28;20216;-57
2022/09/22 02:29:45;;;;;;;5.97;5.33;;;;;;;2.71;100.00;97756.25;5010111;28;20205;-59
2022/09/22 02:32:17;;;;;;;5.43;4.90;;;;;;;2.81;100.00;97754.56;5005074;28;20232;-56
2022/09/22 02:34:46;;;;;;;16.80;6.63;;;;;;;2.79;100.00;97759.09;4951651;28;20600;-55
2022/09/22 02:37:21;;;;;;;5.30;4.90;;;;;;;2.77;100.00;97763.63;5007126;28;20715;-57
2022/09/22 02:39:58;;;;;;;6.30;5.53;;;;;;;2.78;100.00;97759.22;4987916;28;20208;-60
2022/09/22 02:42:28;;;;;;;32.90;7.87;;;;;;;2.77;100.00;97757.56;4978242;28;20227;-57
2022/09/22 02:45:01;;;;;;;10.33;6.27;;;;;;;2.79;100.00;97756.47;5003574;28;20220;-57
2022/09/22 02:47:35;;;;;;;7.73;5.67;;;;;;;2.85;100.00;97755.16;5005270;28;20239;-60
2022/09/22 02:50:07;;;;;;;4.97;4.63;;;;;;;2.92;100.00;97760.75;4957003;28;20591;-57
2022/09/22 02:52:36;;;;;;;12.77;6.20;;;;;;;2.90;100.00;97758.25;5006743;28;20311;-56
2022/09/22 02:55:07;;;;;;;18.90;6.50;;;;;;;2.85;100.00;97760.41;4983900;28;20233;-59
2022/09/22 02:57:36;;;;;;;5.00;4.70;;;;;;;2.95;100.00;97760.50;4978033;28;20304;-58
2022/09/22 03:00:05;;;;;;;10.53;5.30;;;;;;;2.88;100.00;97760.16;5007621;28;21450;-57
2022/09/22 03:02:35;;;;;;;9.23;4.53;;;;;;;2.80;100.00;97750.28;5008202;28;20227;-56
2022/09/22 03:05:03;;;;;;;13.67;5.73;;;;;;;2.81;100.00;97753.75;4953342;28;20236;-58
2022/09/22 03:07:32;;;;;;;7.90;4.87;;;;;;;2.77;100.00;97752.31;5003276;28;20271;-56
2022/09/22 03:10:00;;;;;;;4.83;4.43;;;;;;;2.66;100.00;97755.78;5006403;28;20503;-58
2022/09/22 03:12:28;;;;;;;4.87;4.50;;;;;;;2.75;100.00;97752.44;4958191;28;20240;-55
2022/09/22 03:14:56;;;;;;;5.80;4.80;;;;;;;2.75;100.00;97752.44;4972007;28;20783;-59
2022/09/22 03:17:25;;;;;;;5.47;4.97;;;;;;;2.74;100.00;97756.00;5004577;28;20201;-58
2022/09/22 03:19:54;;;;;;;35.43;5.53;;;;;;;2.74;100.00;97754.22;4957503;28;20212;-58
2022/09/22 03:22:22;;;;;;;12.07;5.73;;;;;;;2.57;100.00;97752.09;4937577;28;20204;-57
2022/09/22 03:24:50;;;;;;;5.50;4.57;;;;;;;2.55;100.00;97747.00;4987336;28;20274;-55
2022/09/22 03:27:18;;;;;;;18.63;5.40;;;;;;;2.66;100.00;97746.16;5005937;28;20208;-57
2022/09/22 03:29:47;;;;;;;19.77;5.80;;;;;;;2.62;100.00;97754.34;4985547;28;20290;-57
2022/09/22 03:32:15;;;;;;;23.53;6.30;;;;;;;2.62;100.00;97746.50;5003900;28;20204;-54
2022/09/22 03:34:43;;;;;;;11.70;5.27;;;;;;;2.67;100.00;97749.59;4998813;28;20314;-54
2022/09/22 03:37:12;;;;;;;10.27;5.30;;;;;;;2.64;100.00;97745.41;5005431;28;20215;-54
2022/09/22 03:39:40;;;;;;;16.13;5.63;;;;;;;2.61;100.00;97748.28;4952225;28;20216;-56
2022/09/22 03:42:09;;;;;;;12.37;5.60;;;;;;;2.51;100.00;97745.56;5005544;28;20738;-60
2022/09/22 03:44:37;;;;;;;12.13;6.60;;;;;;;2.50;100.00;97746.53;4971220;28;20243;-56
2022/09/22 03:47:05;;;;;;;12.33;4.63;;;;;;;2.51;100.00;97744.72;5005217;28;20243;-58
2022/09/22 03:49:33;;;;;;;12.67;5.43;;;;;;;2.57;100.00;97747.69;4970386;28;20212;-54
2022/09/22 03:52:02;;;;;;;8.57;4.23;;;;;;;2.58;100.00;97749.38;5004723;28;20743;-59
2022/09/22 03:54:31;;;;;;;12.90;5.10;;;;;;;2.55;100.00;97749.59;4927494;28;20246;-56
2022/09/22 03:56:59;;;;;;;10.23;5.03;;;;;;;2.54;100.00;97750.56;5003432;28;20859;-59
2022/09/22 03:59:27;;;;;;;5.40;4.93;;;;;;;2.49;100.00;97747.47;4985060;28;20644;-56
2022/09/22 04:01:55;;;;;;;5.70;5.13;;;;;;;2.49;100.00;97757.94;5003486;28;20212;-57
2022/09/22 04:04:25;;;;;;;6.07;5.03;;;;;;;2.46;100.00;97750.28;5004058;28;20216;-59
2022/09/22 04:06:53;;;;;;;4.13;3.87;;;;;;;2.47;100.00;97752.00;5006141;28;20196;-57
2022/09/22 04:09:21;;;;;;;30.40;6.07;;;;;;;2.48;100.00;97756.28;4956836;28;20212;-58
2022/09/22 04:11:50;;;;;;;6.17;4.77;;;;;;;2.46;100.00;97752.91;4964999;28;20209;-58
2022/09/22 04:14:18;;;;;;;7.53;4.83;;;;;;;2.43;100.00;97750.53;4995361;28;20366;-60
2022/09/22 04:16:46;;;;;;;13.63;6.07;;;;;;;2.43;100.00;97745.31;4989138;28;20204;-55
2022/09/22 04:19:15;;;;;;;9.10;5.27;;;;;;;2.44;100.00;97749.59;5005599;28;20474;-54
2022/09/22 04:21:44;;;;;;;4.97;4.23;;;;;;;2.39;100.00;97743.88;5008624;28;20628;-54
2022/09/22 04:24:12;;;;;;;5.00;4.70;;;;;;;2.41;100.00;97747.22;4953314;28;20797;-58
2022/09/22 04:26:40;;;;;;;9.87;5.50;;;;;;;2.41;100.00;97747.22;4981068;28;20523;-57
2022/09/22 04:29:29;;;;;;;6.33;4.97;;;;;;;2.36;100.00;97742.34;4975228;28;20215;-60
2022/09/22 04:31:57;;;;;;;5.00;4.60;;;;;;;2.33;100.00;97737.34;4990209;28;20434;-61
2022/09/22 04:34:25;;;;;;;5.60;4.73;;;;;;;2.40;100.00;97735.94;4980166;28;20228;-58
2022/09/22 04:36:53;;;;;;;4.93;4.47;;;;;;;2.40;100.00;97735.94;5005646;28;20360;-59
2022/09/22 04:39:21;;;;;;;12.97;5.73;;;;;;;2.39;100.00;97743.88;5007432;28;20494;-54
2022/09/22 04:41:51;;;;;;;5.70;5.10;;;;;;;2.37;100.00;97746.63;4961189;28;20834;-57
2022/09/22 04:44:19;;;;;;;9.87;5.63;;;;;;;2.31;100.00;97736.66;5006962;28;20220;-56
2022/09/22 04:46:49;;;;;;;11.70;5.90;;;;;;;2.31;100.00;97747.91;4984212;28;20231;-59
2022/09/22 04:49:17;;;;;;;11.27;5.40;;;;;;;2.25;100.00;97739.72;4990091;28;20951;-59
2022/09/22 04:51:45;;;;;;;16.20;5.77;;;;;;;2.26;100.00;97742.22;5005656;28;20193;-61
2022/09/22 04:54:13;;;;;;;17.77;6.13;;;;;;;2.31;100.00;97740.06;5007956;28;20270;-57
2022/09/22 04:56:41;;;;;;;19.33;6.43;;;;;;;2.29;100.00;97738.53;4966048;28;20208;-52
2022/09/22 04:59:10;;;;;;;17.77;5.77;;;;;;;2.31;100.00;97744.50;5005685;28;20216;-55
2022/09/22 05:01:38;;;;;;;8.60;4.67;;;;;;;2.38;100.00;97743.06;4997771;28;20208;-60
2022/09/22 05:04:08;;;;;;;4.83;4.47;;;;;;;2.38;100.00;97744.84;4994801;28;20914;-60
2022/09/22 05:06:36;;;;;;;18.00;5.60;;;;;;;2.42;100.00;97752.34;5007932;28;20208;-58
2022/09/22 05:09:04;;;;;;;30.90;7.43;;;;;;;2.48;100.00;97756.28;5007910;28;20946;-59
2022/09/22 05:11:33;;;;;;;15.53;5.47;;;;;;;2.59;100.00;97756.25;4961334;28;20236;-59
2022/09/22 05:14:01;;;;;;;18.40;5.80;;;;;;;2.71;100.00;97758.88;5005870;28;20255;-58
2022/09/22 05:16:31;;;;;;;14.73;7.07;;;;;;;2.69;100.00;97761.63;4983346;28;22626;-56
2022/09/22 05:18:59;;;;;;;10.77;4.80;;;;;;;2.79;100.00;97760.88;4998420;28;20700;-57
2022/09/22 05:21:28;;;;;;;36.33;7.67;;;;;;;2.84;100.00;97762.19;5006566;28;20282;-58
2022/09/22 05:23:56;;;;;;;18.23;6.53;;;;;;;2.83;100.00;97767.53;5009802;28;20217;-59
2022/09/22 05:26:25;;;;;;;29.40;7.03;;;;;;;2.73;100.00;97763.03;4969441;28;20952;-59
2022/09/22 05:28:54;;;;;;;36.27;6.73;;;;;;;2.68;100.00;97766.94;4958515;28;20433;-56
2022/09/22 05:31:22;;;;;;;5.33;4.70;;;;;;;2.79;100.00;97766.94;4998332;28;20231;-57
2022/09/22 05:33:50;;;;;;;7.30;5.33;;;;;;;2.88;100.00;97765.41;5005262;28;20896;-58
2022/09/22 05:36:18;;;;;;;9.33;5.03;;;;;;;2.99;100.00;97770.59;4992410;28;20223;-60
2022/09/22 05:38:47;;;;;;;23.07;7.63;;;;;;;2.91;100.00;97761.72;5001021;28;20212;-62
2022/09/22 05:41:15;;;;;;;5.63;4.43;;;;;;;2.92;100.00;97761.56;5005041;28;20629;-59
2022/09/22 05:43:43;;;;;;;8.73;5.30;;;;;;;2.98;100.00;97770.75;4958194;28;20225;-59
2022/09/22 05:46:11;;;;;;;7.23;5.23;;;;;;;3.01;100.00;97775.72;5003739;28;20223;-55
2022/09/22 05:48:39;;;;;;;12.53;5.93;;;;;;;2.96;100.00;97772.66;5006602;28;20280;-59
2022/09/22 05:51:07;;;;;;;6.67;6.13;;;;;;;3.09;100.00;97773.34;4991583;28;20212;-59
2022/09/22 05:53:35;;;;;;;5.50;5.10;;;;;;;3.35;100.00;97772.19;5004858;28;20712;-57
2022/09/22 05:56:04;;;;;;;5.47;5.17;;;;;;;3.28;100.00;97774.50;5008809;28;20584;-59
2022/09/22 05:58:33;;;;;;;16.40;7.63;;;;;;;3.32;100.00;97770.66;4978461;28;20207;-59
2022/09/22 06:01:03;;;;;;;6.10;5.60;;;;;;;3.30;100.00;97775.19;4997127;28;20216;-61
2022/09/22 06:03:31;;;;;;;10.67;6.80;;;;;;;3.34;100.00;97776.63;5006981;28;20244;-58
2022/09/22 06:05:59;;;;;;;5.13;4.73;;;;;;;3.34;100.00;97771.38;5007546;28;20316;-61
2022/09/22 06:08:27;;;;;;;6.53;4.67;;;;;;;3.55;100.00;97774.03;4988535;28;20212;-56
2022/09/22 06:10:55;;;;;;;7.23;4.50;;;;;;;3.71;100.00;97780.63;5007738;28;20241;-57
2022/09/22 06:13:24;;;;;;;7.40;6.17;;;;;;;3.86;100.00;97775.94;5005883;28;20215;-60
2022/09/22 06:15:53;;;;;;;5.17;4.77;;;;;;;3.91;100.00;97779.84;4973224;28;20236;-61
2022/09/22 06:18:21;;;;;;;6.77;5.33;;;;;;;3.85;100.00;97779.50;5004427;28;20200;-59
2022/09/22 06:20:51;;;;;;;7.80;6.23;;;;;;;3.86;100.00;97784.63;5004361;28;20232;-58
2022/09/22 06:23:19;;;;;;;22.00;6.27;;;;;;;3.87;100.00;97783.69;4992281;28;20208;-59
2022/09/22 06:25:47;;;;;;;6.97;5.80;;;;;;;3.88;100.00;97781.88;5005013;28;20204;-56
2022/09/22 06:28:15;;;;;;;8.40;5.40;;;;;;;4.12;100.00;97780.81;5006372;28;20214;-56
2022/09/22 06:30:47;;;;;;;5.10;4.50;;;;;;;4.27;100.00;97790.00;4950490;28;20216;-57
2022/09/22 06:33:15;;;;;;;18.57;6.87;;;;;;;4.04;100.00;97779.66;5007388;28;20212;-61
2022/09/22 06:35:44;;;;;;;10.93;5.47;;;;;;;4.05;100.00;97778.69;5003739;28;20341;-56
2022/09/22 06:38:14;;;;;;;6.20;5.60;;;;;;;4.29;100.00;97787.25;4992135;28;20212;-60
2022/09/22 06:40:42;;;;;;;6.27;5.50;;;;;;;4.47;100.00;97779.63;5000754;28;20416;-58
2022/09/22 06:43:21;;;;;;;18.63;7.20;;;;;;;4.59;100.00;97778.56;5007785;28;20204;-58
2022/09/22 06:45:51;;;;;;;33.27;9.77;;;;;;;4.76;100.00;97778.94;4960564;28;20294;-56
2022/09/22 06:48:22;;;;;;;7.07;6.37;;;;;;;4.91;100.00;97780.22;5004468;28;20246;-59
2022/09/22 06:50:52;;;;;;;19.10;7.23;;;;;;;5.03;100.00;97785.34;5003883;28;20200;-57
2022/09/22 06:53:20;;;;;;;11.13;5.87;;;;;;;4.96;100.00;97789.50;5008948;28;20599;-59
2022/09/22 06:55:53;;;;;;;6.47;5.83;;;;;;;5.00;100.00;97775.13;4989512;28;20963;-59
2022/09/22 06:58:22;;;;;;;6.73;6.13;;;;;;;5.24;100.00;97787.91;5006945;28;20209;-63
2022/09/22 07:00:52;;;;;;;4.60;4.30;;;;;;;5.13;100.00;97790.66;4958490;28;20534;-55
2022/09/22 07:03:23;;;;;;;4.43;4.13;;;;;;;5.07;100.00;97784.97;5002592;28;20200;-56
2022/09/22 07:05:55;;;;;;;19.17;5.23;;;;;;;4.97;100.00;97785.91;5006568;28;20220;-61
2022/09/22 07:08:24;;;;;;;15.43;5.23;;;;;;;4.89;100.00;97782.16;5007939;28;20675;-56
2022/09/22 07:10:53;;;;;;;9.63;4.07;;;;;;;5.07;100.00;97784.13;4987548;28;20224;-60
2022/09/22 07:13:21;;;;;;;18.70;5.17;;;;;;;4.88;100.00;97787.53;5005053;28;20683;-59
2022/09/22 07:15:51;;;;;;;20.33;5.50;;;;;;;4.75;100.00;97782.53;4957467;28;20227;-58
2022/09/22 07:18:19;;;;;;;5.27;3.60;;;;;;;4.82;100.00;97788.91;5003806;28;20211;-60
2022/09/22 07:20:47;;;;;;;4.17;3.77;;;;;;;5.07;100.00;97787.59;4998013;28;20212;-57
2022/09/22 07:23:17;;;;;;;10.53;5.07;;;;;;;5.54;100.00;97782.72;5005902;28;20751;-60
2022/09/22 07:25:55;;;;;;;4.77;4.43;;;;;;;5.75;100.00;97788.66;4985541;28;20479;-61
2022/09/22 07:28:24;;;;;;;5.20;4.80;;;;;;;6.15;100.00;97786.88;5006424;28;20208;-58
2022/09/22 07:30:56;;;;;;;5.60;5.03;;;;;;;6.28;100.00;97786.56;4955995;28;21419;-61
2022/09/22 07:33:24;;;;;;;7.00;6.30;;;;;;;6.59;100.00;97786.31;4975127;28;20215;-60
2022/09/22 07:36:00;;;;;;;13.67;8.03;;;;;;;6.90;100.00;97777.34;4944819;28;21607;-60
2022/09/22 07:38:32;;;;;;;5.77;5.30;;;;;;;7.11;100.00;97779.75;4995745;28;20575;-57
2022/09/22 07:41:01;;;;;;;5.67;5.17;;;;;;;7.45;100.00;97779.13;5006613;28;20208;-62
2022/09/22 07:43:29;;;;;;;5.33;4.97;;;;;;;7.68;100.00;97776.88;5004490;28;20212;-58
2022/09/22 07:45:58;;;;;;;5.20;4.80;;;;;;;7.81;100.00;97771.22;4985569;28;20208;-61
2022/09/22 07:48:41;;;;;;;4.60;4.30;;;;;;;7.47;100.00;97769.25;5004798;28;20716;-58
2022/09/22 07:51:11;;;;;;;4.07;3.77;;;;;;;7.53;100.00;97773.06;4964366;28;20751;-58
2022/09/22 07:53:44;;;;;;;4.23;3.80;;;;;;;7.69;100.00;97759.22;4988676;28;20830;-56
2022/09/22 07:56:14;;;;;;;3.90;3.60;;;;;;;7.92;100.00;97762.22;5007952;28;20224;-60
2022/09/22 07:58:45;;;;;;;3.93;3.73;;;;;;;7.86;100.00;97764.66;5004792;28;20259;-59
2022/09/22 08:01:15;;;;;;;4.27;3.97;;;;;;;7.66;100.00;97757.72;5006169;28;20216;-58
2022/09/22 08:03:45;;;;;;;5.47;4.10;;;;;;;7.76;100.00;97762.91;5007370;28;20911;-60
2022/09/22 08:06:14;;;;;;;5.17;4.67;;;;;;;7.81;100.00;97754.53;4997206;28;20688;-60
2022/09/22 08:08:45;;;;;;;5.03;4.73;;;;;;;8.12;100.00;97756.75;4976918;28;20309;-56
2022/09/22 08:11:14;;;;;;;4.53;4.23;;;;;;;8.29;100.00;97762.97;5004389;28;20215;-58
2022/09/22 08:13:45;;;;;;;4.00;3.80;;;;;;;8.05;100.00;97764.47;5002427;28;20480;-62
2022/09/22 08:16:13;;;;;;;4.20;4.00;;;;;;;8.11;100.00;97760.38;5007285;28;20235;-58
2022/09/22 08:18:42;;;;;;;4.40;4.07;;;;;;;8.18;100.00;97756.13;5004954;28;20547;-60
2022/09/22 08:21:12;;;;;;;4.50;4.20;;;;;;;7.89;100.00;97764.34;5005657;28;20223;-61
2022/09/22 08:23:40;;;;;;;5.10;4.80;;;;;;;8.11;100.00;97753.28;4952660;28;20335;-59
2022/09/22 08:26:09;;;;;;;5.07;4.77;;;;;;;7.94;100.00;97764.72;5004460;28;20197;-60
2022/09/22 08:28:37;;;;;;;5.03;4.73;;;;;;;8.18;100.00;97755.31;4998968;28;20209;-59
2022/09/22 08:31:11;;;;;;;4.23;4.03;;;;;;;8.38;100.00;97758.59;5007463;28;20228;-56
2022/09/22 08:33:40;;;;;;;5.50;5.10;;;;;;;8.57;100.00;97760.22;5009212;28;20279;-55
2022/09/22 08:36:09;;;;;;;5.50;5.10;;;;;;;8.72;100.00;97767.53;5009447;28;20232;-59
2022/09/22 08:38:37;;;;;;;5.00;4.60;;;;;;;8.62;100.00;97765.00;4962091;28;20434;-61
2022/09/22 08:41:16;;;;;;;4.97;4.67;;;;;;;8.80;100.00;97760.50;5006523;28;20581;-60
2022/09/22 08:43:54;;;;;;;5.03;4.73;;;;;;;9.17;100.00;97760.28;5008523;28;20252;-61
2022/09/22 08:46:27;;;;;;;5.33;5.03;;;;;;;9.30;100.00;97760.66;5007442;28;20215;-59
2022/09/22 08:51:52;;;;;;;4.87;4.50;;;;;;;9.22;100.00;97750.88;5002901;28;20216;-60
2022/09/22 08:54:22;;;;;;;6.00;5.10;;;;;;;9.67;100.00;97745.34;4959242;28;20595;-58
2022/09/22 08:57:02;;;;;;;6.10;5.50;;;;;;;9.96;100.00;97746.66;5008059;28;20220;-61
2022/09/22 08:59:32;;;;;;;5.80;5.47;;;;;;;10.05;100.00;97742.19;5001236;28;20495;-57
2022/09/22 09:02:17;;;;;;;6.30;5.90;;;;;;;10.33;100.00;97749.78;5009517;28;20204;-57
2022/09/22 09:05:07;;;;;;;5.97;5.57;;;;;;;10.39;100.00;97741.97;5006055;28;20639;-61
2022/09/22 09:07:44;;;;;;;5.93;5.50;;;;;;;9.70;100.00;97743.19;4960566;28;21450;-58
2022/09/22 09:10:25;;;;;;;5.50;5.10;;;;;;;9.63;100.00;97742.19;5005333;28;20204;-59
2022/09/22 09:13:02;;;;;;;5.60;5.30;;;;;;;9.93;100.00;97744.34;5010548;28;20212;-55
2022/09/22 09:15:42;;;;;;;5.67;5.27;;;;;;;9.88;100.00;97746.66;5005262;28;20224;-58
2022/09/22 09:18:14;;;;;;;4.87;4.57;;;;;;;9.88;100.00;97742.22;5009683;28;20214;-59
2022/09/22 09:20:45;;;;;;;5.47;5.07;;;;;;;10.03;100.00;97730.94;5008263;28;20404;-60
2022/09/22 09:23:21;;;;;;;5.50;5.07;;;;;;;10.17;100.00;97734.75;5003251;28;20220;-60
2022/09/22 09:25:53;;;;;;;5.80;5.40;;;;;;;10.21;100.00;97733.41;4992608;28;20256;-60
2022/09/22 09:28:22;;;;;;;5.37;5.07;;;;;;;10.17;100.00;97732.91;5006645;28;20213;-60
2022/09/22 09:31:01;;;;;;;5.37;4.97;;;;;;;10.38;100.00;97732.38;5009409;28;20684;-59
2022/09/22 09:33:33;;;;;;;5.43;5.03;;;;;;;10.64;100.00;97734.00;5004694;28;20214;-57
2022/09/22 09:36:02;;;;;;;5.30;4.90;;;;;;;10.83;100.00;97726.66;5006227;28;20220;-58
2022/09/22 09:38:34;;;;;;;5.80;5.27;;;;;;;10.99;100.00;97728.41;5004686;28;20209;-60
2022/09/22 09:41:13;;;;;;;5.23;4.83;;;;;;;11.02;100.00;97719.25;4963898;28;20636;-60
2022/09/22 09:43:44;;;;;;;5.63;4.70;;;;;;;11.28;100.00;97727.75;4948270;28;20220;-58
2022/09/22 09:46:17;;;;;;;4.87;4.47;;;;;;;11.42;100.00;97720.84;5003403;28;20208;-56
2022/09/22 09:48:59;;;;;;;4.83;4.53;;;;;;;11.61;100.00;97720.56;5009524;28;20323;-57
2022/09/22 09:51:28;;;;;;;4.67;4.23;;;;;;;11.67;100.00;97720.66;4992613;28;20302;-58
2022/09/22 09:54:04;;;;;;;4.40;4.10;;;;;;;11.71;99.63;97711.34;5005098;28;20235;-62
2022/09/22 09:56:35;;;;;;;4.87;4.40;;;;;;;11.90;99.86;97716.34;5008842;28;20224;-60
2022/09/22 10:01:52;;;;;;;4.03;3.70;;;;;;;12.35;93.24;97714.63;5002552;28;20215;-59
2022/09/22 10:04:30;;;;;;;4.63;4.30;;;;;;;12.40;94.22;97725.53;5005697;28;20432;-59
2022/09/22 10:07:11;;;;;;;4.50;4.20;;;;;;;12.52;90.13;97720.59;5005317;28;20317;-60
2022/09/22 10:09:41;;;;;;;3.70;3.50;;;;;;;12.68;87.59;97718.75;5006184;28;20577;-60
2022/09/22 10:12:22;;;;;;;4.60;4.30;;;;;;;12.66;84.91;97702.97;4990825;28;21840;-61
2022/09/22 10:14:51;;;;;;;4.67;4.27;;;;;;;12.73;86.16;97700.41;4956521;28;20516;-59
2022/09/22 10:17:20;;;;;;;3.63;3.37;;;;;;;12.06;83.90;97697.66;5002537;28;20259;-57
2022/09/22 10:19:49;;;;;;;4.83;4.43;;;;;;;11.95;85.28;97695.41;5008044;28;20220;-59
2022/09/22 10:22:24;;;;;;;3.60;3.40;;;;;;;12.51;80.83;97699.50;5003169;28;20208;-59
2022/09/22 10:24:56;;;;;;;4.40;4.10;;;;;;;12.83;79.05;97692.16;5002645;28;20224;-58
2022/09/22 10:27:25;;;;;;;7.50;5.07;;;;;;;13.14;77.04;97696.41;5008617;28;20204;-56
2022/09/22 10:30:22;;;;;;;3.47;3.23;;;;;;;13.26;77.19;97688.75;4938050;28;20446;-57
2022/09/22 10:33:20;;;;;;;4.80;4.40;;;;;;;12.97;77.67;97693.94;4999673;28;20204;-56
2022/09/22 10:35:54;;;;;;;4.67;4.27;;;;;;;12.61;78.85;97688.59;4940571;28;20207;-57
2022/09/22 10:38:25;;;;;;;3.33;3.13;;;;;;;12.54;76.44;97689.34;4948287;28;20253;-60
2022/09/22 10:40:57;;;;;;;3.53;2.90;;;;;;;13.02;71.57;97690.72;4944172;28;20405;-59
2022/09/22 10:43:40;;;;;;;3.00;2.80;;;;;;;13.44;72.45;97689.16;4928915;28;20210;-55
2022/09/22 10:46:28;;;;;;;4.03;3.10;;;;;;;13.07;71.40;97687.50;4899259;28;20385;-58
2022/09/22 10:49:06;;;;;;;4.17;3.10;;;;;;;13.21;69.43;97683.16;4943446;28;20461;-59
2022/09/22 10:51:42;;;;;;;3.20;2.87;;;;;;;13.58;70.39;97679.47;4946534;28;20210;-57
2022/09/22 10:54:22;;;;;;;4.80;3.67;;;;;;;13.35;70.63;97671.66;4945591;28;20505;-56
2022/09/22 10:56:53;;;;;;;3.77;3.57;;;;;;;13.38;71.17;97670.41;4946520;28;20580;-59
2022/09/22 10:59:50;;;;;;;3.70;3.40;;;;;;;13.07;72.54;97675.03;4926792;28;20207;-60
2022/09/22 11:02:56;;;;;;;3.13;2.90;;;;;;;12.90;71.17;97678.94;4948129;28;20210;-61
2022/09/22 11:14:12;;;;;;;2.50;2.30;;;;;;;14.41;63.68;97669.19;4986675;28;20228;-56
2022/09/22 11:16:48;;;;;;;2.40;2.20;;;;;;;14.73;61.94;97661.56;4956119;28;20225;-58
2022/09/22 11:19:57;;;;;;;2.70;2.50;;;;;;;14.80;60.28;97658.94;5007804;28;20220;-56
2022/09/22 11:22:47;;;;;;;2.60;2.50;;;;;;;15.02;60.06;97656.97;5005094;28;20207;-57
2022/09/22 11:25:25;;;;;;;2.90;2.27;;;;;;;15.13;58.91;97652.88;4986160;28;20584;-59
2022/09/22 11:28:04;;;;;;;2.23;2.00;;;;;;;15.10;56.08;97661.28;5002477;28;20196;-59
2022/09/22 11:30:35;;;;;;;2.60;2.40;;;;;;;15.01;55.34;97661.50;4989955;28;20210;-59
2022/09/22 11:33:24;;;;;;;1.93;1.80;;;;;;;15.21;57.96;97651.88;4970669;28;20204;-59
2022/09/22 11:36:09;;;;;;;1.63;1.63;;;;;;;15.07;55.87;97645.69;5002212;28;20235;-57
2022/09/22 11:39:01;;;;;;;2.37;2.27;;;;;;;15.20;55.11;97648.38;5002837;28;20235;-57
2022/09/22 11:41:31;;;;;;;1.83;1.83;;;;;;;15.49;57.52;97633.03;4988962;28;20215;-60
2022/09/22 11:44:34;;;;;;;2.60;1.90;;;;;;;15.72;56.93;97637.94;5004643;28;20944;-60
2022/09/22 11:47:27;;;;;;;2.30;2.10;;;;;;;15.77;54.81;97637.34;4932594;28;20445;-55
2022/09/22 11:50:12;;;;;;;3.30;2.43;;;;;;;16.18;56.56;97632.78;4991708;28;20756;-55
2022/09/22 11:52:54;;;;;;;1.80;1.70;;;;;;;15.96;55.27;97626.88;5004388;28;20208;-58
2022/09/22 11:55:31;;;;;;;2.47;2.33;;;;;;;15.75;56.67;97628.72;5001521;28;20421;-61
2022/09/22 11:58:03;;;;;;;2.13;2.03;;;;;;;15.55;56.19;97616.19;5002730;28;20228;-59
2022/09/22 12:00:35;;;;;;;2.53;2.33;;;;;;;15.82;57.69;97629.53;5004484;28;20289;-53
2022/09/22 12:03:09;;;;;;;2.40;2.30;;;;;;;15.21;57.41;97627.88;5004703;28;21091;-57
2022/09/22 12:05:40;;;;;;;2.93;2.83;;;;;;;14.88;57.59;97624.06;4961669;28;20246;-61
2022/09/22 12:08:11;;;;;;;2.30;2.20;;;;;;;14.94;57.20;97617.94;5005901;28;20218;-59